KADS/ADS METAR and TAF weather

Enter ICAO airport designator
Station Type Date Time Source
KADS METAR 2019/11/14 03:55 UTC NOAA

KADS 140355Z AUTO 15011KT 10SM SCT036 OVC042 05/M03 A3016 RMK AO2 T00451031


Station Type Date Time Source
KADS Decoded METAR 2019/11/14 03:55 UTC NOAA

Dallas / Addison Airport, TX, United States (KADS) 32-58N 096-50W
Nov 13, 2019 - 10:55 PM EST / 2019.11.14 0355 UTC
Wind: from the SSE (150 degrees) at 13 MPH (11 KT):0
Visibility: 10 mile(s):0
Sky conditions: overcast
Temperature: 40.1 F (4.5 C)
Dew Point: 26.4 F (-3.1 C)
Relative Humidity: 57%
Pressure (altimeter): 30.16 in. Hg (1021 hPa)
ob: KADS 140355Z AUTO 15011KT 10SM SCT036 OVC042 05/M03 A3016 RMK AO2 T00451031
cycle: 4

Station Type Date Time Source
KADS TAF UTC NOAA

Error!

Example: see airport list